Flight Track Log - Related Links

Times and Time Zones

All times are in EDT time to prevent confusion due to time zone crossing. See the THY2460 flight status page for this flight to view local times or setup timezone preferences in your user account.

Time Position Orientation Groundspeed Altitude Reporting Facility
EDT Latitude Longitude Course Direction KTS MPH feet Rate Location/Type
Sat 05:32:00 AM 39.4067 31.5182 126° Southeast  Level Estimated
Sat 05:33:00 AM 39.3370 31.6327 128° Southeast  Level Estimated
Sat 05:34:00 AM 39.2673 31.7469 128° Southeast  Level Estimated
Sat 05:35:00 AM 39.1974 31.8610 128° Southeast  Level Estimated
Sat 05:36:00 AM 39.1274 31.9747 128° Southeast  Level Estimated
Sat 05:37:00 AM 39.0573 32.0883 128° Southeast  Level Estimated
Sat 05:38:00 AM 38.9870 32.2016 129° Southeast  Level Estimated
Sat 05:39:00 AM 38.9167 32.3147 129° Southeast  Level Estimated
Sat 05:40:00 AM 38.8463 32.4276 129° Southeast  Level Estimated
Sat 05:41:00 AM 38.7757 32.5403 129° Southeast  Level Estimated
Sat 05:42:00 AM 38.7051 32.6527 129° Southeast  Level Estimated
Sat 05:43:00 AM 38.6343 32.7649 129° Southeast  Level Estimated
Sat 05:44:00 AM 38.5635 32.8769 129° Southeast  Level Estimated
Sat 05:45:00 AM 38.4925 32.9887 129° Southeast  Level Estimated
Sat 05:46:00 AM 38.4214 33.1002 129° Southeast  Level Estimated
Sat 05:47:00 AM 38.3502 33.2116 129° Southeast  Level Estimated
Sat 05:48:00 AM 38.2789 33.3227 129° Southeast  Level Estimated
Sat 05:49:00 AM 38.2076 33.4336 129° Southeast  Level Estimated
Sat 05:50:00 AM 38.1361 33.5442 129° Southeast  Level Estimated
Sat 05:51:00 AM 38.0644 33.6547 129° Southeast  Level Estimated
Sat 05:52:00 AM 37.9927 33.7649 130° Southeast  Level Estimated
Sat 05:53:00 AM 37.9209 33.8750 130° Southeast  Level Estimated
Sat 05:54:00 AM 37.8490 33.9848 130° Southeast  Level Estimated
Sat 05:55:00 AM 37.7770 34.0944 130° Southeast  Level Estimated
Sat 05:56:00 AM 37.7049 34.2038 130° Southeast  Level Estimated
Sat 05:57:00 AM 37.6327 34.3129 130° Southeast  Level Estimated
Sat 05:58:00 AM 37.5604 34.4219 130° Southeast  Level Estimated
Sat 05:59:00 AM 37.4880 34.5307 130° Southeast  Level Estimated
Sat 06:00:00 AM 37.4155 34.6392 130° Southeast  Level Estimated
Sat 06:01:00 AM 37.3429 34.7475 130° Southeast  Level Estimated
Sat 06:02:00 AM 37.2701 34.8556 130° Southeast  Level Estimated
Sat 06:03:00 AM 37.1973 34.9636 130° Southeast  Level Estimated
Sat 06:04:00 AM 37.1244 35.0713 130° Southeast  Level Estimated
Sat 06:05:00 AM 37.0514 35.1787 130° Southeast  Level Estimated
Sat 06:06:00 AM 36.9822 35.2804 130° Southeast  Level Estimated
Sat 06:07:00 AM 36.9822 35.2804 202° Southwest  Level Estimated
Sat 06:08:00 AM 36.9822 35.2804 202° Southwest  Level Estimated
Sat 06:09:00 AM 36.9822 35.2804 202° Southwest  Level Estimated
Sat 06:10:00 AM 36.9822 35.2804 202° Southwest  Level Estimated
Sat 06:11:00 AM 36.9822 35.2804 202° Southwest  Level Estimated
Sat 06:12:00 AM 36.9822 35.2804 202° Southwest  Level Estimated
Sat 06:13:00 AM 36.9822 35.2804 202° Southwest  Level Estimated
Sat 06:14:00 AM 36.9822 35.2804 202° Southwest  Level Estimated
Sat 06:15:00 AM 36.9822 35.2804 202° Southwest  Level Estimated
Sat 06:16:00 AM 36.9822 35.2804 202° Southwest  Level Estimated
Sat 06:17:00 AM 36.9822 35.2804 202° Southwest  Level Estimated
Sat 06:18:00 AM 36.9822 35.2804 202° Southwest  Level Estimated
Sat 06:19:00 AM 36.9822 35.2804 202° Southwest  Level Estimated
Sat 06:20:00 AM 36.9822 35.2804 202° Southwest  Level Estimated
Sat 06:21:00 AM 36.9822 35.2804 202° Southwest  Level Estimated
Sat 06:22:00 AM 36.9822 35.2804 202° Southwest  Level Estimated

Login

Don't have an account? Register now (free) for customized features, flight alerts, and more!